sensor_id;sensor_type;location;lat;lon;timestamp;P1;durP1;ratioP1;P2;durP2;ratioP2
13872;SDS011;7006;51.494;11.964;2022-09-09T00:00:06;3.23;;;2.40;;
13872;SDS011;7006;51.494;11.964;2022-09-09T00:02:35;3.77;;;2.37;;
13872;SDS011;7006;51.494;11.964;2022-09-09T00:05:04;8.60;;;2.80;;
13872;SDS011;7006;51.494;11.964;2022-09-09T00:07:41;3.83;;;2.47;;
13872;SDS011;7006;51.494;11.964;2022-09-09T00:10:14;4.93;;;2.60;;
13872;SDS011;7006;51.494;11.964;2022-09-09T00:12:47;4.30;;;2.37;;
13872;SDS011;7006;51.494;11.964;2022-09-09T00:15:18;4.07;;;2.40;;
13872;SDS011;7006;51.494;11.964;2022-09-09T00:17:47;4.20;;;2.17;;
13872;SDS011;7006;51.494;11.964;2022-09-09T00:20:16;2.63;;;2.13;;
13872;SDS011;7006;51.494;11.964;2022-09-09T00:22:51;6.03;;;2.50;;
13872;SDS011;7006;51.494;11.964;2022-09-09T00:25:22;3.47;;;2.40;;
13872;SDS011;7006;51.494;11.964;2022-09-09T00:27:49;2.97;;;2.10;;
13872;SDS011;7006;51.494;11.964;2022-09-09T00:30:17;3.73;;;2.47;;
13872;SDS011;7006;51.494;11.964;2022-09-09T00:32:47;3.33;;;2.50;;
13872;SDS011;7006;51.494;11.964;2022-09-09T00:35:16;4.13;;;2.40;;
13872;SDS011;7006;51.494;11.964;2022-09-09T00:37:44;3.80;;;2.10;;
13872;SDS011;7006;51.494;11.964;2022-09-09T00:40:18;3.00;;;2.20;;
13872;SDS011;7006;51.494;11.964;2022-09-09T00:42:52;4.50;;;2.00;;
13872;SDS011;7006;51.494;11.964;2022-09-09T00:45:33;4.13;;;2.83;;
13872;SDS011;7006;51.494;11.964;2022-09-09T00:48:08;6.10;;;2.50;;
13872;SDS011;7006;51.494;11.964;2022-09-09T00:50:40;2.60;;;2.07;;
13872;SDS011;7006;51.494;11.964;2022-09-09T00:53:14;3.33;;;2.30;;
13872;SDS011;7006;51.494;11.964;2022-09-09T00:55:51;6.30;;;2.40;;
13872;SDS011;7006;51.494;11.964;2022-09-09T00:58:22;5.37;;;2.47;;
13872;SDS011;7006;51.494;11.964;2022-09-09T01:00:49;3.13;;;2.50;;
13872;SDS011;7006;51.494;11.964;2022-09-09T01:03:19;5.87;;;2.37;;
13872;SDS011;7006;51.494;11.964;2022-09-09T01:05:51;4.00;;;2.40;;
13872;SDS011;7006;51.494;11.964;2022-09-09T01:11:23;3.87;;;2.70;;
13872;SDS011;7006;51.494;11.964;2022-09-09T01:13:53;3.00;;;2.10;;
13872;SDS011;7006;51.494;11.964;2022-09-09T01:16:24;3.53;;;2.37;;
13872;SDS011;7006;51.494;11.964;2022-09-09T01:18:52;3.97;;;2.40;;
13872;SDS011;7006;51.494;11.964;2022-09-09T01:21:21;5.00;;;2.60;;
13872;SDS011;7006;51.494;11.964;2022-09-09T01:23:57;6.00;;;2.37;;
13872;SDS011;7006;51.494;11.964;2022-09-09T01:26:33;4.43;;;2.50;;
13872;SDS011;7006;51.494;11.964;2022-09-09T01:29:01;6.10;;;2.80;;
13872;SDS011;7006;51.494;11.964;2022-09-09T01:31:28;5.17;;;2.60;;
13872;SDS011;7006;51.494;11.964;2022-09-09T01:33:56;4.17;;;2.43;;
13872;SDS011;7006;51.494;11.964;2022-09-09T01:36:24;3.00;;;2.37;;
13872;SDS011;7006;51.494;11.964;2022-09-09T01:38:55;3.23;;;2.40;;
13872;SDS011;7006;51.494;11.964;2022-09-09T01:41:22;4.30;;;2.30;;
13872;SDS011;7006;51.494;11.964;2022-09-09T01:43:50;7.40;;;2.80;;
13872;SDS011;7006;51.494;11.964;2022-09-09T01:46:17;4.50;;;2.03;;
13872;SDS011;7006;51.494;11.964;2022-09-09T01:48:44;3.67;;;2.17;;
13872;SDS011;7006;51.494;11.964;2022-09-09T01:51:11;4.63;;;2.40;;
13872;SDS011;7006;51.494;11.964;2022-09-09T01:53:38;5.47;;;2.20;;
13872;SDS011;7006;51.494;11.964;2022-09-09T01:56:08;3.73;;;2.30;;
13872;SDS011;7006;51.494;11.964;2022-09-09T01:58:46;4.60;;;2.10;;
13872;SDS011;7006;51.494;11.964;2022-09-09T02:01:24;4.77;;;2.50;;
13872;SDS011;7006;51.494;11.964;2022-09-09T02:03:57;4.00;;;2.50;;
13872;SDS011;7006;51.494;11.964;2022-09-09T02:06:27;7.33;;;2.60;;
13872;SDS011;7006;51.494;11.964;2022-09-09T02:08:57;4.93;;;2.43;;
13872;SDS011;7006;51.494;11.964;2022-09-09T02:11:25;3.37;;;2.10;;
13872;SDS011;7006;51.494;11.964;2022-09-09T02:13:54;4.53;;;2.37;;
13872;SDS011;7006;51.494;11.964;2022-09-09T02:16:24;5.80;;;2.53;;
13872;SDS011;7006;51.494;11.964;2022-09-09T02:18:53;4.13;;;2.00;;
13872;SDS011;7006;51.494;11.964;2022-09-09T02:21:22;3.00;;;2.10;;
13872;SDS011;7006;51.494;11.964;2022-09-09T02:23:48;5.40;;;1.90;;
13872;SDS011;7006;51.494;11.964;2022-09-09T02:26:17;4.67;;;2.23;;
13872;SDS011;7006;51.494;11.964;2022-09-09T02:28:46;7.40;;;2.60;;
13872;SDS011;7006;51.494;11.964;2022-09-09T02:31:17;3.00;;;2.10;;
13872;SDS011;7006;51.494;11.964;2022-09-09T02:33:48;3.40;;;2.00;;
13872;SDS011;7006;51.494;11.964;2022-09-09T02:36:17;3.50;;;1.80;;
13872;SDS011;7006;51.494;11.964;2022-09-09T02:38:45;3.37;;;2.23;;
13872;SDS011;7006;51.494;11.964;2022-09-09T02:41:15;5.03;;;2.43;;
13872;SDS011;7006;51.494;11.964;2022-09-09T02:43:42;5.93;;;2.53;;
13872;SDS011;7006;51.494;11.964;2022-09-09T02:46:10;4.27;;;2.50;;
13872;SDS011;7006;51.494;11.964;2022-09-09T02:48:47;3.10;;;2.30;;
13872;SDS011;7006;51.494;11.964;2022-09-09T02:51:19;3.00;;;2.23;;
13872;SDS011;7006;51.494;11.964;2022-09-09T02:53:51;3.43;;;2.10;;
13872;SDS011;7006;51.494;11.964;2022-09-09T02:56:21;7.40;;;2.97;;
13872;SDS011;7006;51.494;11.964;2022-09-09T02:58:49;5.90;;;2.60;;
13872;SDS011;7006;51.494;11.964;2022-09-09T03:01:18;4.63;;;2.10;;
13872;SDS011;7006;51.494;11.964;2022-09-09T03:03:44;4.20;;;2.30;;
13872;SDS011;7006;51.494;11.964;2022-09-09T03:06:11;4.47;;;2.30;;
13872;SDS011;7006;51.494;11.964;2022-09-09T03:08:39;4.63;;;2.03;;
13872;SDS011;7006;51.494;11.964;2022-09-09T03:11:06;5.57;;;2.33;;
13872;SDS011;7006;51.494;11.964;2022-09-09T03:13:34;5.70;;;2.43;;
13872;SDS011;7006;51.494;11.964;2022-09-09T03:16:00;4.93;;;2.43;;
13872;SDS011;7006;51.494;11.964;2022-09-09T03:18:30;4.57;;;2.57;;
13872;SDS011;7006;51.494;11.964;2022-09-09T03:20:57;3.70;;;2.50;;
13872;SDS011;7006;51.494;11.964;2022-09-09T03:23:24;3.33;;;2.20;;
13872;SDS011;7006;51.494;11.964;2022-09-09T03:25:51;3.50;;;2.43;;
13872;SDS011;7006;51.494;11.964;2022-09-09T03:28:21;11.63;;;3.30;;
13872;SDS011;7006;51.494;11.964;2022-09-09T03:30:48;3.80;;;2.63;;
13872;SDS011;7006;51.494;11.964;2022-09-09T03:33:15;7.03;;;2.73;;
13872;SDS011;7006;51.494;11.964;2022-09-09T03:35:46;3.47;;;2.47;;
13872;SDS011;7006;51.494;11.964;2022-09-09T03:38:13;3.83;;;2.60;;
13872;SDS011;7006;51.494;11.964;2022-09-09T03:40:47;9.03;;;2.70;;
13872;SDS011;7006;51.494;11.964;2022-09-09T03:43:15;5.03;;;2.77;;
13872;SDS011;7006;51.494;11.964;2022-09-09T03:45:44;5.67;;;3.37;;
13872;SDS011;7006;51.494;11.964;2022-09-09T03:48:11;4.80;;;2.80;;
13872;SDS011;7006;51.494;11.964;2022-09-09T03:50:38;5.13;;;3.33;;
13872;SDS011;7006;51.494;11.964;2022-09-09T03:53:06;8.00;;;3.40;;
13872;SDS011;7006;51.494;11.964;2022-09-09T03:55:32;6.73;;;3.37;;
13872;SDS011;7006;51.494;11.964;2022-09-09T03:57:59;5.27;;;3.50;;
13872;SDS011;7006;51.494;11.964;2022-09-09T04:00:25;5.00;;;3.60;;
13872;SDS011;7006;51.494;11.964;2022-09-09T04:02:52;4.77;;;3.70;;
13872;SDS011;7006;51.494;11.964;2022-09-09T04:05:22;7.27;;;4.37;;
13872;SDS011;7006;51.494;11.964;2022-09-09T04:07:49;8.17;;;4.10;;
13872;SDS011;7006;51.494;11.964;2022-09-09T04:10:17;4.97;;;4.20;;
13872;SDS011;7006;51.494;11.964;2022-09-09T04:12:44;5.40;;;4.40;;
13872;SDS011;7006;51.494;11.964;2022-09-09T04:15:11;4.83;;;3.93;;
13872;SDS011;7006;51.494;11.964;2022-09-09T04:17:37;8.67;;;4.47;;
13872;SDS011;7006;51.494;11.964;2022-09-09T04:20:04;7.27;;;4.30;;
13872;SDS011;7006;51.494;11.964;2022-09-09T04:22:32;6.07;;;5.00;;
13872;SDS011;7006;51.494;11.964;2022-09-09T04:24:59;5.20;;;4.30;;
13872;SDS011;7006;51.494;11.964;2022-09-09T04:27:26;5.50;;;4.10;;
13872;SDS011;7006;51.494;11.964;2022-09-09T04:29:54;5.50;;;4.40;;
13872;SDS011;7006;51.494;11.964;2022-09-09T04:32:21;6.23;;;4.10;;
13872;SDS011;7006;51.494;11.964;2022-09-09T04:34:48;6.27;;;4.40;;
13872;SDS011;7006;51.494;11.964;2022-09-09T04:37:14;7.47;;;4.47;;
13872;SDS011;7006;51.494;11.964;2022-09-09T04:39:41;8.30;;;4.80;;
13872;SDS011;7006;51.494;11.964;2022-09-09T04:42:08;7.73;;;4.50;;
13872;SDS011;7006;51.494;11.964;2022-09-09T04:44:36;6.23;;;4.67;;
13872;SDS011;7006;51.494;11.964;2022-09-09T04:47:02;8.77;;;4.50;;
13872;SDS011;7006;51.494;11.964;2022-09-09T04:49:29;7.17;;;4.60;;
13872;SDS011;7006;51.494;11.964;2022-09-09T04:51:56;7.20;;;3.90;;
13872;SDS011;7006;51.494;11.964;2022-09-09T04:54:23;4.90;;;3.67;;
13872;SDS011;7006;51.494;11.964;2022-09-09T04:56:50;5.97;;;3.90;;
13872;SDS011;7006;51.494;11.964;2022-09-09T04:59:17;6.97;;;4.27;;
13872;SDS011;7006;51.494;11.964;2022-09-09T05:01:44;6.93;;;3.27;;
13872;SDS011;7006;51.494;11.964;2022-09-09T05:04:11;5.90;;;4.10;;
13872;SDS011;7006;51.494;11.964;2022-09-09T05:06:38;6.93;;;4.03;;
13872;SDS011;7006;51.494;11.964;2022-09-09T05:09:04;5.73;;;4.00;;
13872;SDS011;7006;51.494;11.964;2022-09-09T05:11:32;7.10;;;4.03;;
13872;SDS011;7006;51.494;11.964;2022-09-09T05:14:01;4.90;;;4.27;;
13872;SDS011;7006;51.494;11.964;2022-09-09T05:16:28;6.10;;;4.10;;
13872;SDS011;7006;51.494;11.964;2022-09-09T05:18:56;7.70;;;4.37;;
13872;SDS011;7006;51.494;11.964;2022-09-09T05:21:24;6.27;;;4.53;;
13872;SDS011;7006;51.494;11.964;2022-09-09T05:23:51;7.40;;;4.83;;
13872;SDS011;7006;51.494;11.964;2022-09-09T05:26:18;7.17;;;4.70;;
13872;SDS011;7006;51.494;11.964;2022-09-09T05:28:46;6.30;;;4.77;;
13872;SDS011;7006;51.494;11.964;2022-09-09T05:31:13;6.43;;;4.57;;
13872;SDS011;7006;51.494;11.964;2022-09-09T05:33:41;6.60;;;4.57;;
13872;SDS011;7006;51.494;11.964;2022-09-09T05:36:12;7.17;;;4.67;;
13872;SDS011;7006;51.494;11.964;2022-09-09T05:38:40;8.93;;;5.32;;
13872;SDS011;7006;51.494;11.964;2022-09-09T05:41:08;7.43;;;5.20;;
13872;SDS011;7006;51.494;11.964;2022-09-09T05:43:36;6.07;;;3.90;;
13872;SDS011;7006;51.494;11.964;2022-09-09T05:46:04;13.60;;;4.77;;
13872;SDS011;7006;51.494;11.964;2022-09-09T05:48:32;5.90;;;4.07;;
13872;SDS011;7006;51.494;11.964;2022-09-09T05:51:00;5.17;;;3.70;;
13872;SDS011;7006;51.494;11.964;2022-09-09T05:53:28;7.70;;;3.83;;
13872;SDS011;7006;51.494;11.964;2022-09-09T05:56:00;6.00;;;3.70;;
13872;SDS011;7006;51.494;11.964;2022-09-09T05:58:28;4.20;;;3.20;;
13872;SDS011;7006;51.494;11.964;2022-09-09T06:01:00;6.90;;;3.60;;
13872;SDS011;7006;51.494;11.964;2022-09-09T06:03:27;9.00;;;3.30;;
13872;SDS011;7006;51.494;11.964;2022-09-09T06:05:57;5.87;;;3.30;;
13872;SDS011;7006;51.494;11.964;2022-09-09T06:08:24;4.60;;;3.50;;
13872;SDS011;7006;51.494;11.964;2022-09-09T06:10:52;6.70;;;3.63;;
13872;SDS011;7006;51.494;11.964;2022-09-09T06:13:19;4.60;;;3.43;;
13872;SDS011;7006;51.494;11.964;2022-09-09T06:15:49;4.83;;;3.07;;
13872;SDS011;7006;51.494;11.964;2022-09-09T06:18:16;5.27;;;3.20;;
13872;SDS011;7006;51.494;11.964;2022-09-09T06:20:52;4.30;;;3.13;;
13872;SDS011;7006;51.494;11.964;2022-09-09T06:23:19;6.47;;;3.10;;
13872;SDS011;7006;51.494;11.964;2022-09-09T06:25:46;8.03;;;3.40;;
13872;SDS011;7006;51.494;11.964;2022-09-09T06:28:15;6.97;;;2.90;;
13872;SDS011;7006;51.494;11.964;2022-09-09T06:30:42;5.10;;;3.03;;
13872;SDS011;7006;51.494;11.964;2022-09-09T06:33:09;6.53;;;3.23;;
13872;SDS011;7006;51.494;11.964;2022-09-09T06:35:36;5.97;;;3.43;;
13872;SDS011;7006;51.494;11.964;2022-09-09T06:38:02;6.67;;;4.03;;
13872;SDS011;7006;51.494;11.964;2022-09-09T06:40:29;5.50;;;3.30;;
13872;SDS011;7006;51.494;11.964;2022-09-09T06:42:58;4.83;;;3.40;;
13872;SDS011;7006;51.494;11.964;2022-09-09T06:45:27;8.37;;;3.10;;
13872;SDS011;7006;51.494;11.964;2022-09-09T06:47:54;3.77;;;2.70;;
13872;SDS011;7006;51.494;11.964;2022-09-09T06:50:21;7.73;;;3.33;;
13872;SDS011;7006;51.494;11.964;2022-09-09T06:52:47;4.70;;;2.77;;
13872;SDS011;7006;51.494;11.964;2022-09-09T06:55:14;7.33;;;2.90;;
13872;SDS011;7006;51.494;11.964;2022-09-09T06:57:42;5.17;;;2.60;;
13872;SDS011;7006;51.494;11.964;2022-09-09T07:00:10;7.33;;;3.60;;
13872;SDS011;7006;51.494;11.964;2022-09-09T07:02:40;4.70;;;2.80;;
13872;SDS011;7006;51.494;11.964;2022-09-09T07:05:06;5.40;;;2.70;;
13872;SDS011;7006;51.494;11.964;2022-09-09T07:07:34;2.90;;;1.83;;
13872;SDS011;7006;51.494;11.964;2022-09-09T07:10:00;6.60;;;2.40;;
13872;SDS011;7006;51.494;11.964;2022-09-09T07:12:28;4.90;;;2.30;;
13872;SDS011;7006;51.494;11.964;2022-09-09T07:14:54;11.90;;;2.63;;
13872;SDS011;7006;51.494;11.964;2022-09-09T07:17:21;4.90;;;1.93;;
13872;SDS011;7006;51.494;11.964;2022-09-09T07:19:48;6.40;;;2.37;;
13872;SDS011;7006;51.494;11.964;2022-09-09T07:22:15;4.30;;;2.80;;
13872;SDS011;7006;51.494;11.964;2022-09-09T07:24:42;5.37;;;2.10;;
13872;SDS011;7006;51.494;11.964;2022-09-09T07:27:10;5.37;;;1.80;;
13872;SDS011;7006;51.494;11.964;2022-09-09T07:29:36;3.60;;;1.90;;
13872;SDS011;7006;51.494;11.964;2022-09-09T07:32:03;4.27;;;1.93;;
13872;SDS011;7006;51.494;11.964;2022-09-09T07:34:30;5.20;;;2.37;;
13872;SDS011;7006;51.494;11.964;2022-09-09T07:36:57;3.13;;;1.90;;
13872;SDS011;7006;51.494;11.964;2022-09-09T07:39:24;4.13;;;1.90;;
13872;SDS011;7006;51.494;11.964;2022-09-09T07:41:50;5.17;;;2.10;;
13872;SDS011;7006;51.494;11.964;2022-09-09T07:44:19;5.60;;;1.83;;
13872;SDS011;7006;51.494;11.964;2022-09-09T07:46:47;5.13;;;2.10;;
13872;SDS011;7006;51.494;11.964;2022-09-09T07:49:14;3.87;;;2.40;;
13872;SDS011;7006;51.494;11.964;2022-09-09T07:51:41;3.90;;;1.70;;
13872;SDS011;7006;51.494;11.964;2022-09-09T07:54:10;6.23;;;2.20;;
13872;SDS011;7006;51.494;11.964;2022-09-09T07:56:38;4.40;;;1.80;;
13872;SDS011;7006;51.494;11.964;2022-09-09T07:59:06;3.70;;;1.53;;
13872;SDS011;7006;51.494;11.964;2022-09-09T08:01:33;5.40;;;1.87;;
13872;SDS011;7006;51.494;11.964;2022-09-09T08:04:05;3.83;;;1.60;;
13872;SDS011;7006;51.494;11.964;2022-09-09T08:06:33;2.97;;;1.70;;
13872;SDS011;7006;51.494;11.964;2022-09-09T08:09:02;4.37;;;2.00;;
13872;SDS011;7006;51.494;11.964;2022-09-09T08:11:30;2.73;;;1.70;;
13872;SDS011;7006;51.494;11.964;2022-09-09T08:13:58;3.07;;;2.03;;
13872;SDS011;7006;51.494;11.964;2022-09-09T08:16:25;3.50;;;1.90;;
13872;SDS011;7006;51.494;11.964;2022-09-09T08:18:53;3.50;;;1.93;;
13872;SDS011;7006;51.494;11.964;2022-09-09T08:21:21;3.83;;;1.70;;
13872;SDS011;7006;51.494;11.964;2022-09-09T08:23:50;4.33;;;1.60;;
13872;SDS011;7006;51.494;11.964;2022-09-09T08:26:18;6.00;;;1.80;;
13872;SDS011;7006;51.494;11.964;2022-09-09T08:28:48;4.77;;;1.80;;
13872;SDS011;7006;51.494;11.964;2022-09-09T08:31:16;3.23;;;1.57;;
13872;SDS011;7006;51.494;11.964;2022-09-09T08:33:44;3.73;;;1.43;;
13872;SDS011;7006;51.494;11.964;2022-09-09T08:36:12;3.57;;;1.60;;
13872;SDS011;7006;51.494;11.964;2022-09-09T08:38:41;4.10;;;1.57;;
13872;SDS011;7006;51.494;11.964;2022-09-09T08:41:13;6.77;;;1.77;;
13872;SDS011;7006;51.494;11.964;2022-09-09T08:43:48;3.50;;;1.57;;
13872;SDS011;7006;51.494;11.964;2022-09-09T08:46:18;4.20;;;1.83;;
13872;SDS011;7006;51.494;11.964;2022-09-09T08:48:51;4.10;;;2.20;;
13872;SDS011;7006;51.494;11.964;2022-09-09T08:51:20;3.20;;;1.47;;
13872;SDS011;7006;51.494;11.964;2022-09-09T08:53:48;4.07;;;1.80;;
13872;SDS011;7006;51.494;11.964;2022-09-09T08:56:16;5.20;;;1.90;;
13872;SDS011;7006;51.494;11.964;2022-09-09T08:58:48;4.37;;;1.70;;
13872;SDS011;7006;51.494;11.964;2022-09-09T09:01:19;3.80;;;1.20;;
13872;SDS011;7006;51.494;11.964;2022-09-09T09:03:57;4.93;;;1.47;;
13872;SDS011;7006;51.494;11.964;2022-09-09T09:06:30;4.20;;;1.73;;
13872;SDS011;7006;51.494;11.964;2022-09-09T09:09:07;3.87;;;1.40;;
13872;SDS011;7006;51.494;11.964;2022-09-09T09:11:37;6.23;;;1.60;;
13872;SDS011;7006;51.494;11.964;2022-09-09T09:14:08;4.23;;;1.60;;
13872;SDS011;7006;51.494;11.964;2022-09-09T09:16:38;3.47;;;1.70;;
13872;SDS011;7006;51.494;11.964;2022-09-09T09:19:10;2.80;;;1.60;;
13872;SDS011;7006;51.494;11.964;2022-09-09T09:21:39;5.83;;;1.63;;
13872;SDS011;7006;51.494;11.964;2022-09-09T09:24:12;3.20;;;1.40;;
13872;SDS011;7006;51.494;11.964;2022-09-09T09:26:41;3.30;;;1.47;;
13872;SDS011;7006;51.494;11.964;2022-09-09T09:29:11;3.90;;;1.57;;
13872;SDS011;7006;51.494;11.964;2022-09-09T09:31:41;4.20;;;1.87;;
13872;SDS011;7006;51.494;11.964;2022-09-09T09:34:09;3.17;;;1.23;;
13872;SDS011;7006;51.494;11.964;2022-09-09T09:36:38;4.53;;;1.73;;
13872;SDS011;7006;51.494;11.964;2022-09-09T09:39:07;2.93;;;1.40;;
13872;SDS011;7006;51.494;11.964;2022-09-09T09:41:35;3.13;;;1.87;;
13872;SDS011;7006;51.494;11.964;2022-09-09T09:44:04;4.63;;;1.87;;
13872;SDS011;7006;51.494;11.964;2022-09-09T09:46:32;3.73;;;1.57;;
13872;SDS011;7006;51.494;11.964;2022-09-09T09:49:00;4.03;;;1.40;;
13872;SDS011;7006;51.494;11.964;2022-09-09T09:51:27;3.90;;;1.70;;
13872;SDS011;7006;51.494;11.964;2022-09-09T09:54:01;4.43;;;1.90;;
13872;SDS011;7006;51.494;11.964;2022-09-09T09:56:30;4.27;;;1.93;;
13872;SDS011;7006;51.494;11.964;2022-09-09T09:58:57;2.53;;;1.20;;
13872;SDS011;7006;51.494;11.964;2022-09-09T10:01:25;5.27;;;1.87;;
13872;SDS011;7006;51.494;11.964;2022-09-09T10:03:54;4.63;;;1.47;;
13872;SDS011;7006;51.494;11.964;2022-09-09T10:06:30;3.20;;;1.70;;
13872;SDS011;7006;51.494;11.964;2022-09-09T10:08:58;3.00;;;1.40;;
13872;SDS011;7006;51.494;11.964;2022-09-09T10:11:33;4.80;;;1.70;;
13872;SDS011;7006;51.494;11.964;2022-09-09T10:14:08;3.80;;;1.63;;
13872;SDS011;7006;51.494;11.964;2022-09-09T10:16:46;4.80;;;1.47;;
13872;SDS011;7006;51.494;11.964;2022-09-09T10:19:31;4.53;;;1.93;;
13872;SDS011;7006;51.494;11.964;2022-09-09T10:22:06;7.40;;;2.77;;
13872;SDS011;7006;51.494;11.964;2022-09-09T10:27:30;4.50;;;1.60;;
13872;SDS011;7006;51.494;11.964;2022-09-09T10:30:02;5.50;;;1.70;;
13872;SDS011;7006;51.494;11.964;2022-09-09T10:32:41;3.17;;;1.50;;
13872;SDS011;7006;51.494;11.964;2022-09-09T10:35:17;3.10;;;1.20;;
13872;SDS011;7006;51.494;11.964;2022-09-09T10:37:54;4.67;;;1.20;;
13872;SDS011;7006;51.494;11.964;2022-09-09T10:40:38;5.73;;;2.10;;
13872;SDS011;7006;51.494;11.964;2022-09-09T10:43:10;4.10;;;1.73;;
13872;SDS011;7006;51.494;11.964;2022-09-09T10:45:43;4.20;;;1.60;;
13872;SDS011;7006;51.494;11.964;2022-09-09T10:48:26;4.13;;;1.53;;
13872;SDS011;7006;51.494;11.964;2022-09-09T10:51:02;4.77;;;2.00;;
13872;SDS011;7006;51.494;11.964;2022-09-09T10:53:42;4.00;;;1.50;;
13872;SDS011;7006;51.494;11.964;2022-09-09T10:56:15;10.70;;;2.20;;
13872;SDS011;7006;51.494;11.964;2022-09-09T10:58:44;3.30;;;1.80;;
13872;SDS011;7006;51.494;11.964;2022-09-09T11:01:16;5.07;;;1.90;;
13872;SDS011;7006;51.494;11.964;2022-09-09T11:03:46;4.20;;;1.90;;
13872;SDS011;7006;51.494;11.964;2022-09-09T11:06:17;4.30;;;1.40;;
13872;SDS011;7006;51.494;11.964;2022-09-09T11:08:46;4.33;;;1.87;;
13872;SDS011;7006;51.494;11.964;2022-09-09T11:11:15;4.90;;;1.93;;
13872;SDS011;7006;51.494;11.964;2022-09-09T11:13:44;5.33;;;2.20;;
13872;SDS011;7006;51.494;11.964;2022-09-09T11:16:19;3.13;;;1.10;;
13872;SDS011;7006;51.494;11.964;2022-09-09T11:18:50;3.63;;;1.17;;
13872;SDS011;7006;51.494;11.964;2022-09-09T11:21:23;2.53;;;1.10;;
13872;SDS011;7006;51.494;11.964;2022-09-09T11:23:53;3.53;;;1.17;;
13872;SDS011;7006;51.494;11.964;2022-09-09T11:26:24;2.20;;;1.20;;
13872;SDS011;7006;51.494;11.964;2022-09-09T11:28:59;4.73;;;1.70;;
13872;SDS011;7006;51.494;11.964;2022-09-09T11:31:37;2.90;;;1.40;;
13872;SDS011;7006;51.494;11.964;2022-09-09T11:34:19;2.73;;;1.33;;
13872;SDS011;7006;51.494;11.964;2022-09-09T11:36:59;2.63;;;1.20;;
13872;SDS011;7006;51.494;11.964;2022-09-09T11:39:38;4.03;;;1.30;;
13872;SDS011;7006;51.494;11.964;2022-09-09T11:42:24;3.83;;;1.43;;
13872;SDS011;7006;51.494;11.964;2022-09-09T11:44:51;5.60;;;1.80;;
13872;SDS011;7006;51.494;11.964;2022-09-09T11:47:22;3.73;;;1.20;;
13872;SDS011;7006;51.494;11.964;2022-09-09T11:49:54;2.93;;;1.40;;
13872;SDS011;7006;51.494;11.964;2022-09-09T11:52:23;3.37;;;1.70;;
13872;SDS011;7006;51.494;11.964;2022-09-09T11:54:51;3.30;;;1.60;;
13872;SDS011;7006;51.494;11.964;2022-09-09T11:57:23;2.80;;;1.40;;
13872;SDS011;7006;51.494;11.964;2022-09-09T11:59:53;6.03;;;1.83;;
13872;SDS011;7006;51.494;11.964;2022-09-09T12:02:22;6.47;;;1.93;;
13872;SDS011;7006;51.494;11.964;2022-09-09T12:04:49;9.90;;;1.90;;
13872;SDS011;7006;51.494;11.964;2022-09-09T12:07:31;4.73;;;1.93;;
13872;SDS011;7006;51.494;11.964;2022-09-09T12:10:00;4.73;;;1.90;;
13872;SDS011;7006;51.494;11.964;2022-09-09T12:12:30;7.40;;;2.20;;
13872;SDS011;7006;51.494;11.964;2022-09-09T12:14:59;3.40;;;1.60;;
13872;SDS011;7006;51.494;11.964;2022-09-09T12:17:46;3.83;;;1.43;;
13872;SDS011;7006;51.494;11.964;2022-09-09T12:20:15;5.00;;;1.87;;
13872;SDS011;7006;51.494;11.964;2022-09-09T12:25:54;2.90;;;1.30;;
13872;SDS011;7006;51.494;11.964;2022-09-09T12:28:25;3.53;;;1.40;;
13872;SDS011;7006;51.494;11.964;2022-09-09T12:30:55;6.17;;;2.63;;
13872;SDS011;7006;51.494;11.964;2022-09-09T12:33:24;5.10;;;1.73;;
13872;SDS011;7006;51.494;11.964;2022-09-09T12:35:51;3.50;;;1.43;;
13872;SDS011;7006;51.494;11.964;2022-09-09T12:38:24;3.13;;;1.50;;
13872;SDS011;7006;51.494;11.964;2022-09-09T12:40:54;5.63;;;1.97;;
13872;SDS011;7006;51.494;11.964;2022-09-09T12:43:22;2.90;;;1.57;;
13872;SDS011;7006;51.494;11.964;2022-09-09T12:45:50;4.07;;;1.30;;
13872;SDS011;7006;51.494;11.964;2022-09-09T12:48:22;3.43;;;1.53;;
13872;SDS011;7006;51.494;11.964;2022-09-09T12:50:53;4.20;;;1.33;;
13872;SDS011;7006;51.494;11.964;2022-09-09T12:53:23;2.20;;;1.10;;
13872;SDS011;7006;51.494;11.964;2022-09-09T12:55:52;2.70;;;1.20;;
13872;SDS011;7006;51.494;11.964;2022-09-09T12:58:20;3.47;;;1.33;;
13872;SDS011;7006;51.494;11.964;2022-09-09T13:00:50;4.40;;;1.40;;
13872;SDS011;7006;51.494;11.964;2022-09-09T13:03:18;3.70;;;1.60;;
13872;SDS011;7006;51.494;11.964;2022-09-09T13:05:46;3.23;;;1.00;;
13872;SDS011;7006;51.494;11.964;2022-09-09T13:08:13;5.43;;;1.33;;
13872;SDS011;7006;51.494;11.964;2022-09-09T13:10:46;3.50;;;1.57;;
13872;SDS011;7006;51.494;11.964;2022-09-09T13:13:19;3.87;;;0.90;;
13872;SDS011;7006;51.494;11.964;2022-09-09T13:15:48;3.73;;;1.43;;
13872;SDS011;7006;51.494;11.964;2022-09-09T13:18:16;3.67;;;1.20;;
13872;SDS011;7006;51.494;11.964;2022-09-09T13:20:46;3.60;;;1.20;;
13872;SDS011;7006;51.494;11.964;2022-09-09T13:23:13;2.93;;;1.20;;
13872;SDS011;7006;51.494;11.964;2022-09-09T13:25:40;4.87;;;1.00;;
13872;SDS011;7006;51.494;11.964;2022-09-09T13:28:20;3.67;;;1.30;;
13872;SDS011;7006;51.494;11.964;2022-09-09T13:30:54;2.90;;;1.20;;
13872;SDS011;7006;51.494;11.964;2022-09-09T13:33:24;2.70;;;1.20;;
13872;SDS011;7006;51.494;11.964;2022-09-09T13:35:57;2.93;;;1.20;;
13872;SDS011;7006;51.494;11.964;2022-09-09T13:38:25;2.40;;;1.20;;
13872;SDS011;7006;51.494;11.964;2022-09-09T13:40:57;4.10;;;1.10;;
13872;SDS011;7006;51.494;11.964;2022-09-09T13:43:28;4.50;;;1.20;;
13872;SDS011;7006;51.494;11.964;2022-09-09T13:45:57;4.10;;;0.93;;
13872;SDS011;7006;51.494;11.964;2022-09-09T13:48:25;3.60;;;1.17;;
13872;SDS011;7006;51.494;11.964;2022-09-09T13:50:58;3.70;;;1.30;;
13872;SDS011;7006;51.494;11.964;2022-09-09T13:53:26;4.20;;;1.20;;
13872;SDS011;7006;51.494;11.964;2022-09-09T13:55:53;3.50;;;0.80;;
13872;SDS011;7006;51.494;11.964;2022-09-09T13:58:20;2.57;;;1.20;;
13872;SDS011;7006;51.494;11.964;2022-09-09T14:00:49;3.80;;;1.10;;
13872;SDS011;7006;51.494;11.964;2022-09-09T14:03:15;3.57;;;1.00;;
13872;SDS011;7006;51.494;11.964;2022-09-09T14:05:42;6.43;;;1.60;;
13872;SDS011;7006;51.494;11.964;2022-09-09T14:08:11;2.93;;;1.20;;
13872;SDS011;7006;51.494;11.964;2022-09-09T14:10:42;3.47;;;1.07;;
13872;SDS011;7006;51.494;11.964;2022-09-09T14:13:09;2.83;;;1.40;;
13872;SDS011;7006;51.494;11.964;2022-09-09T14:15:37;4.13;;;1.07;;
13872;SDS011;7006;51.494;11.964;2022-09-09T14:18:05;2.67;;;1.20;;
13872;SDS011;7006;51.494;11.964;2022-09-09T14:20:31;3.83;;;1.40;;
13872;SDS011;7006;51.494;11.964;2022-09-09T14:22:58;2.30;;;0.93;;
13872;SDS011;7006;51.494;11.964;2022-09-09T14:25:24;3.43;;;1.00;;
13872;SDS011;7006;51.494;11.964;2022-09-09T14:27:51;4.67;;;0.93;;
13872;SDS011;7006;51.494;11.964;2022-09-09T14:30:17;3.60;;;1.00;;
13872;SDS011;7006;51.494;11.964;2022-09-09T14:32:43;3.17;;;0.90;;
13872;SDS011;7006;51.494;11.964;2022-09-09T14:35:11;2.47;;;0.70;;
13872;SDS011;7006;51.494;11.964;2022-09-09T14:37:38;2.97;;;0.70;;
13872;SDS011;7006;51.494;11.964;2022-09-09T14:40:05;2.67;;;0.60;;
13872;SDS011;7006;51.494;11.964;2022-09-09T14:42:32;1.83;;;0.73;;
13872;SDS011;7006;51.494;11.964;2022-09-09T14:44:58;1.70;;;0.60;;
13872;SDS011;7006;51.494;11.964;2022-09-09T14:47:25;2.57;;;0.50;;
13872;SDS011;7006;51.494;11.964;2022-09-09T14:49:52;1.70;;;0.60;;
13872;SDS011;7006;51.494;11.964;2022-09-09T14:52:20;2.93;;;0.60;;
13872;SDS011;7006;51.494;11.964;2022-09-09T14:54:46;2.10;;;0.70;;
13872;SDS011;7006;51.494;11.964;2022-09-09T14:57:13;3.47;;;0.60;;
13872;SDS011;7006;51.494;11.964;2022-09-09T14:59:39;2.87;;;1.10;;
13872;SDS011;7006;51.494;11.964;2022-09-09T15:02:07;2.03;;;0.43;;
13872;SDS011;7006;51.494;11.964;2022-09-09T15:04:34;1.90;;;0.60;;
13872;SDS011;7006;51.494;11.964;2022-09-09T15:07:00;2.03;;;0.60;;
13872;SDS011;7006;51.494;11.964;2022-09-09T15:09:28;2.70;;;1.03;;